Latest Weather Observations for Warracknabeal Airport

IDV60801

Issued at 5:22 am EDT Friday 1 December 2023 (issued every 10 minutes, with the page automatically refreshed every 10 minutes)

About weather observations | Map of weather stations | Latest weather observations for VIC | Other Formats
Station Details ID: 078018 Name: WARRACKNABEAL AIRPORT Lat: -36.32 Lon: 142.42 Height: 118.3 m
Data from the previous 72 hours. | See also: Recent months at Warracknabeal Airport
Date/Time
EDT
Temp
°C
App
Temp
°C
Dew
Point
°C
Rel
Hum
%
Delta-T
°C
Wind Press
QNH
hPa
Press
MSL
hPa
Rain since
9am
mm
Dir  Spd
km/h
Gust
km/h
Spd
kts
Gust
kts
01/05:00am 12.4 9.4 10.8 90 0.8 S 17 20 9 11 1008.6 1008.3 0.0
01/04:30am 12.2 9.6 10.6 90 0.8 SSE 15 17 8 9 1008.7 1008.4 0.0
01/04:00am 12.4 9.8 10.8 90 0.8 SSE 15 17 8 9 1008.8 1008.5 0.0
01/03:30am 12.3 9.2 10.4 88 1.0 SSE 17 22 9 12 1008.7 1008.4 0.0
01/03:00am 12.5 9.1 10.4 87 1.1 SSE 19 24 10 13 1008.8 1008.5 0.0
01/02:30am 12.4 8.7 10.3 87 1.1 SSE 20 26 11 14 1008.8 1008.5 0.0
01/02:00am 12.6 9.5 10.3 86 1.2 SSE 17 20 9 11 1009.1 1008.8 0.0
01/01:30am 13.0 9.4 10.4 84 1.4 SSE 20 26 11 14 1009.3 1009.0 0.0
01/01:00am 13.1 9.6 10.3 83 1.5 SSE 19 24 10 13 1009.6 1009.3 0.0
01/12:30am 13.4 9.8 10.0 80 1.8 SSE 19 26 10 14 1009.9 1009.6 0.0
01/12:00am 13.7 9.5 9.9 78 2.0 SSE 22 28 12 15 1010.2 1009.9 0.0
 
Date/Time
EDT
Temp
°C
App
Temp
°C
Dew
Point
°C
Rel
Hum
%
Delta-T
°C
Wind Press
QNH
hPa
Press
MSL
hPa
Rain since
9am
mm
Dir  Spd
km/h
Gust
km/h
Spd
kts
Gust
kts
30/11:30pm 14.2 10.6 10.0 76 2.2 SSE 19 24 10 13 1010.4 1010.2 0.0
30/11:00pm 15.0 10.9 10.0 72 2.6 SE 22 30 12 16 1010.5 1010.3 0.0
30/10:30pm 15.1 11.3 9.9 71 2.7 SE 20 26 11 14 1010.6 1010.4 0.0
30/10:00pm 15.6 11.8 9.1 65 3.4 SSE 19 24 10 13 1010.6 1010.4 0.0
30/09:30pm 16.4 12.4 9.1 62 3.8 SSE 20 28 11 15 1010.6 1010.4 0.0
30/09:00pm 17.5 12.8 9.4 59 4.3 SSE 24 30 13 16 1010.4 1010.2 0.0
30/08:30pm 18.4 13.7 9.2 55 4.8 SSE 24 33 13 18 1010.1 1009.8 0.0
30/08:00pm 19.7 13.9 9.6 52 5.4 SSE 30 41 16 22 1009.6 1009.3 0.0
30/07:30pm 21.1 14.8 9.7 48 6.2 SSE 33 44 18 24 1009.2 1008.9 0.0
30/07:00pm 22.5 16.4 9.6 44 7.0 SSE 32 43 17 23 1008.7 1008.4 0.0
30/06:30pm 23.7 18.5 8.9 39 8.0 SSE 26 37 14 20 1008.3 1008.0 0.0
30/06:00pm 24.4 18.5 9.2 38 8.3 SSE 30 43 16 23 1008.1 1007.9 0.0
30/05:30pm 24.0 17.9 9.6 40 7.9 SSE 32 44 17 24 1008.4 1008.1 0.0
30/05:00pm 24.6 18.5 9.7 39 8.2 SSE 32 41 17 22 1008.7 1008.4 0.0
30/04:30pm 24.0 19.1 9.9 41 7.8 SSE 26 33 14 18 1009.0 1008.7 0.0
30/04:00pm 23.9 18.5 9.5 40 7.9 SE 28 41 15 22 1009.0 1008.7 0.0
30/03:30pm 23.8 18.0 10.8 44 7.3 SSE 32 43 17 23 1008.9 1008.6 0.0
30/03:00pm 24.8 19.6 10.3 40 8.1 SSE 28 39 15 21 1008.9 1008.6 0.0
30/02:30pm 24.2 18.7 10.5 42 7.6 SE 30 39 16 21 1009.0 1008.7 0.0
30/02:05pm 23.9 18.4 10.6 43 7.4 SSE 30 50 16 27 1009.1 1008.8 0.0
30/02:00pm 24.2 18.3 10.5 42 7.6 SSE 32 41 17 22 1009.1 1008.8 0.0
30/01:40pm 24.7 19.6 10.6 41 7.9 SE 28 46 15 25 1009.3 1009.0 0.0
30/01:30pm 23.6 17.2 10.6 44 7.2 SSE 35 46 19 25 1009.4 1009.1 0.0
30/01:03pm 23.4 17.3 10.5 44 7.2 SSE 33 52 18 28 1009.6 1009.3 0.0
30/01:00pm 24.5 18.8 11.8 45 7.3 SSE 33 48 18 26 1009.5 1009.2 0.0
30/12:30pm 23.5 17.1 11.9 48 6.6 SSE 37 56 20 30 1009.6 1009.3 0.0
30/12:23pm 22.0 15.6 10.8 49 6.2 SSE 35 56 19 30 1009.7 1009.4 0.0
30/12:00pm 22.6 16.5 11.7 50 6.2 SSE 35 50 19 27 1009.8 1009.5 0.0
30/11:30am 22.2 15.7 11.6 51 6.0 SSE 37 48 20 26 1010.2 1009.9 0.0
30/11:19am 20.7 13.9 10.8 53 5.4 SSE 37 56 20 30 1010.1 1009.8 0.0
30/11:00am 21.2 14.7 11.8 55 5.3 SSE 37 54 20 29 1010.2 1009.9 0.0
30/10:30am 20.6 13.9 11.0 54 5.3 SSE 37 50 20 27 1010.5 1010.3 0.0
30/10:00am 20.4 13.9 11.6 57 4.9 SSE 37 50 20 27 1010.8 1010.6 0.0
30/09:30am 19.3 12.7 11.3 60 4.4 SSE 37 50 20 27 1010.8 1010.6 0.0
30/09:00am 18.2 11.2 11.3 64 3.8 SSE 39 54 21 29 1010.7 1010.5 1.0
30/08:32am 17.3 10.1 10.7 65 3.6 SSE 39 57 21 31 1010.1 1009.8 1.0
30/08:30am 17.3 10.2 10.9 66 3.5 SSE 39 56 21 30 1010.1 1009.8 1.0
30/08:00am 16.3 8.8 10.8 70 3.0 SSE 41 56 22 30 1009.8 1009.5 1.0
30/07:30am 15.5 9.2 10.9 74 2.5 SSE 35 50 19 27 1009.3 1009.0 1.0
30/07:00am 14.7 9.0 11.1 79 1.9 SSE 32 43 17 23 1009.2 1008.9 1.0
30/06:30am 14.1 8.4 11.1 82 1.6 SSE 32 43 17 23 1009.2 1008.9 1.0
30/06:00am 14.1 8.8 11.3 83 1.5 S 30 39 16 21 1009.1 1008.8 1.0
30/05:30am 14.1 9.6 11.3 83 1.5 S 26 37 14 20 1008.9 1008.6 1.0
30/05:00am 14.2 9.3 11.4 83 1.5 S 28 39 15 21 1008.5 1008.2 1.0
30/04:30am 14.4 9.6 11.7 84 1.5 S 28 37 15 20 1008.4 1008.1 1.0
30/04:00am 14.4 10.9 12.1 86 1.3 SSE 22 30 12 16 1008.0 1007.8 1.0
30/03:30am 14.6 9.9 12.1 85 1.4 SSE 28 39 15 21 1007.8 1007.6 1.0
30/03:00am 14.7 10.4 12.0 84 1.5 SSE 26 35 14 19 1007.9 1007.7 1.0
30/02:30am 14.9 10.6 12.2 84 1.5 S 26 37 14 20 1008.0 1007.8 1.0
30/02:00am 15.1 10.2 12.6 85 1.4 SSE 30 43 16 23 1008.0 1007.8 1.0
30/01:30am 15.1 10.7 13.0 87 1.2 S 28 41 15 22 1008.5 1008.2 1.0
30/01:00am 15.3 10.2 13.2 87 1.2 S 32 41 17 22 1008.8 1008.5 1.0
30/12:30am 15.4 10.7 13.2 87 1.2 S 30 43 16 23 1008.7 1008.4 1.0
30/12:00am 15.4 10.8 13.6 89 1.0 S 30 43 16 23 1008.8 1008.5 1.0
 
Date/Time
EDT
Temp
°C
App
Temp
°C
Dew
Point
°C
Rel
Hum
%
Delta-T
°C
Wind Press
QNH
hPa
Press
MSL
hPa
Rain since
9am
mm
Dir  Spd
km/h
Gust
km/h
Spd
kts
Gust
kts
29/11:30pm 15.6 11.5 13.8 89 1.0 S 28 35 15 19 1008.9 1008.6 1.0
29/11:00pm 15.6 11.9 14.0 90 0.9 S 26 33 14 18 1009.0 1008.7 1.0
29/10:30pm 15.6 12.7 14.0 90 0.9 S 22 30 12 16 1009.0 1008.7 1.0
29/10:00pm 15.3 11.7 14.3 94 0.6 S 26 35 14 19 1008.8 1008.5 1.0
29/09:30pm 15.2 10.5 14.4 95 0.5 S 32 44 17 24 1008.7 1008.4 0.6
29/09:00pm 15.6 10.6 14.1 91 0.9 S 33 44 18 24 1008.3 1008.0 0.0
29/08:30pm 16.9 10.5 13.2 79 2.1 S 39 50 21 27 1007.8 1007.6 0.0
29/08:00pm 18.0 12.2 12.7 71 3.0 SSE 35 52 19 28 1007.4 1007.2 0.0
29/07:30pm 18.2 12.0 12.6 70 3.1 SSE 37 57 20 31 1007.0 1006.8 0.0
29/07:25pm 18.4 11.9 12.8 70 3.2 SSE 39 57 21 31 1006.9 1006.7 0.0
29/07:00pm 18.8 12.3 13.0 69 3.3 SSE 39 52 21 28 1006.5 1006.3 0.0
29/06:34pm 18.9 11.9 12.6 67 3.5 SSE 41 61 22 33 1006.3 1006.1 0.0
29/06:30pm 19.2 12.0 13.2 68 3.4 SSE 43 54 23 29 1006.3 1006.1 0.0
29/06:00pm 19.6 12.2 12.6 64 4.0 S 43 59 23 32 1006.0 1005.8 0.0
29/05:56pm 20.8 13.9 12.8 60 4.6 SSE 41 59 22 32 1005.9 1005.7 0.0
29/05:30pm 20.3 10.9 12.8 62 4.3 SSE 54 67 29 36 1005.7 1005.5 0.0
29/05:00pm 22.3 14.7 12.5 53 5.6 SSE 44 63 24 34 1005.3 1005.1 0.0
29/04:41pm 23.3 16.0 12.9 52 6.0 S 43 61 23 33 1005.4 1005.2 0.0
29/04:30pm 23.3 16.1 13.2 53 5.9 S 43 54 23 29 1005.4 1005.2 0.0
29/04:07pm 22.9 15.9 12.5 52 6.0 S 41 59 22 32 1005.5 1005.3 0.0
29/04:00pm 22.1 14.7 12.4 54 5.5 S 43 59 23 32 1005.4 1005.2 0.0
29/03:44pm 23.6 16.4 13.2 52 6.0 S 43 61 23 33 1005.4 1005.2 0.0
29/03:30pm 23.3 16.5 13.2 53 5.9 S 41 57 22 31 1005.3 1005.1 0.0
29/03:00pm 24.2 18.9 14.3 54 5.9 S 35 56 19 30 1005.3 1005.1 0.0
29/02:53pm 23.2 18.1 13.7 55 5.6 S 33 56 18 30 1005.3 1005.1 0.0
29/02:30pm 23.0 17.6 13.8 56 5.4 S 35 46 19 25 1005.5 1005.3 0.0
29/02:00pm 23.7 18.7 14.1 55 5.7 S 33 44 18 24 1005.6 1005.4 0.0
29/01:30pm 22.5 17.4 13.8 58 5.1 S 33 48 18 26 1005.8 1005.6 0.0
29/01:00pm 21.7 15.7 13.3 59 4.9 S 37 46 20 25 1005.7 1005.5 0.0
29/12:30pm 21.3 15.9 14.0 63 4.3 S 35 48 19 26 1005.6 1005.4 0.0
29/12:00pm 22.2 16.3 14.6 62 4.5 S 39 52 21 28 1005.6 1005.4 0.0
29/11:30am 19.6 15.3 14.4 72 3.0 SSE 30 44 16 24 1005.9 1005.7 0.0
29/11:00am 19.0 13.2 13.8 72 3.0 S 37 46 20 25 1005.9 1005.7 0.0
29/10:30am 18.3 13.1 14.4 78 2.3 SSE 35 50 19 27 1005.9 1005.7 0.0
29/10:00am 18.2 13.0 14.5 79 2.2 S 35 50 19 27 1005.9 1005.7 0.0
29/09:30am 18.3 13.8 14.8 80 2.0 S 32 44 17 24 1006.1 1005.9 0.0
29/09:00am 18.5 14.0 15.0 80 2.1 S 32 43 17 23 1006.3 1006.1 0.6
29/08:42am 17.3 13.5 14.6 84 1.6 S 28 46 15 25 1006.2 1006.0 0.6
29/08:30am 17.5 14.2 15.1 86 1.4 S 26 37 14 20 1006.3 1006.1 0.6
29/08:00am 16.9 13.9 14.7 87 1.3 S 24 32 13 17 1006.3 1006.1 0.6
29/07:30am 16.4 14.3 14.8 90 0.9 S 19 24 10 13 1006.1 1005.9 0.6
29/07:00am 16.3 13.9 14.5 89 1.0 S 20 28 11 15 1006.1 1005.9 0.6
29/06:30am 16.1 13.7 14.5 90 0.9 S 20 26 11 14 1006.1 1005.9 0.6
29/06:00am 16.2 14.1 14.6 90 0.9 S 19 24 10 13 1006.2 1006.0 0.6
29/05:30am 16.2 13.9 14.7 91 0.9 S 20 26 11 14 1005.9 1005.7 0.6
29/05:00am 16.2 13.5 14.7 91 0.9 S 22 30 12 16 1005.8 1005.6 0.6
29/04:30am 16.4 13.5 15.1 92 0.8 S 24 30 13 16 1005.9 1005.7 0.6
29/04:00am 16.7 13.9 15.4 92 0.8 S 24 30 13 16 1006.1 1005.9 0.2
29/03:30am 16.8 14.7 15.3 91 0.9 S 20 28 11 15 1006.2 1006.0 0.0
29/03:00am 16.9 13.9 14.9 88 1.2 SSW 24 32 13 17 1006.6 1006.4 0.0
29/02:30am 17.1 15.6 15.4 90 1.0 S 17 22 9 12 1006.8 1006.6 0.0
29/02:00am 16.8 15.2 15.0 89 1.0 SSW 17 20 9 11 1007.1 1006.9 0.0
29/01:30am 16.3 15.0 14.7 90 0.9 SSW 15 20 8 11 1007.2 1007.0 0.0
29/01:00am 16.2 14.8 14.4 89 1.0 SSW 15 19 8 10 1007.4 1007.2 0.0
29/12:30am 16.0 14.9 14.4 90 0.9 SSW 13 15 7 8 1007.6 1007.4 0.0
29/12:00am 15.9 14.5 14.4 91 0.9 SSW 15 19 8 10 1007.8 1007.6 0.0
 
Date/Time
EDT
Temp
°C
App
Temp
°C
Dew
Point
°C
Rel
Hum
%
Delta-T
°C
Wind Press
QNH
hPa
Press
MSL
hPa
Rain since
9am
mm
Dir  Spd
km/h
Gust
km/h
Spd
kts
Gust
kts
28/11:30pm 15.9 13.7 14.8 93 0.6 SSW 20 28 11 15 1007.9 1007.7 0.0
28/11:00pm 16.6 14.6 13.9 84 1.5 SSW 17 22 9 12 1008.5 1008.2 0.0
28/10:30pm 17.6 15.0 15.0 85 1.5 SSW 22 32 12 17 1008.8 1008.5 0.0
28/10:00pm 18.2 17.7 16.0 87 1.3 SSW 13 20 7 11 1008.7 1008.4 0.0
28/09:30pm 18.5 17.9 15.7 84 1.7 SW 13 17 7 9 1007.8 1007.6 0.0
28/09:00pm 18.7 18.8 15.6 82 1.8 NW 9 11 5 6 1007.7 1007.5 0.0
28/08:30pm 19.1 19.7 15.8 81 2.0 NW 7 9 4 5 1007.6 1007.4 0.0
28/08:00pm 19.4 19.7 15.9 80 2.1 NW 9 11 5 6 1007.3 1007.1 0.0
28/07:30pm 19.5 19.0 16.0 80 2.1 NW 13 17 7 9 1007.0 1006.8 0.0
28/07:00pm 19.4 18.6 16.2 82 1.9 NW 15 20 8 11 1006.9 1006.7 0.0
28/06:30pm 19.8 17.2 15.9 78 2.3 NNW 24 32 13 17 1006.6 1006.4 0.0
28/06:00pm 24.5 19.1 12.1 46 7.1 ENE 32 44 17 24 1005.9 1005.7 0.0
28/05:30pm 25.8 19.9 11.2 40 8.3 ENE 33 43 18 23 1005.4 1005.2 0.0
28/05:00pm 25.5 18.5 11.3 41 8.1 ENE 39 52 21 28 1005.7 1005.5 0.0
28/04:30pm 26.5 19.7 11.8 40 8.5 ENE 39 50 21 27 1006.0 1005.8 0.0
28/04:11pm 27.1 22.2 11.2 37 9.1 E 28 48 15 26 1006.0 1005.8 0.0
28/04:00pm 28.3 24.1 9.6 31 10.5 ESE 22 32 12 17 1005.9 1005.7 0.0
28/03:30pm 29.3 25.3 10.4 31 10.8 ESE 22 32 12 17 1006.1 1005.9 0.0
28/03:00pm 28.4 23.6 8.7 29 10.9 E 24 37 13 20 1006.3 1006.1 0.0
28/02:30pm 28.5 24.2 9.2 30 10.7 ESE 22 35 12 19 1006.9 1006.7 0.0
28/02:00pm 28.2 24.0 9.9 32 10.3 ESE 22 41 12 22 1007.3 1007.1 0.0
28/01:30pm 27.7 23.6 10.0 33 9.9 ESE 22 33 12 18 1008.0 1007.8 0.0
28/01:00pm 26.6 21.8 10.3 36 9.2 SE 26 32 14 17 1008.7 1008.4 0.0
28/12:30pm 25.5 20.8 9.3 36 8.9 ESE 24 33 13 18 1009.2 1008.9 0.0
28/12:00pm 24.3 19.1 8.7 37 8.4 SE 26 37 14 20 1009.7 1009.4 0.0
28/11:30am 22.4 17.7 9.2 43 7.1 SE 24 33 13 18 1010.6 1010.4 0.0
28/11:00am 21.1 17.3 9.7 48 6.2 SE 20 28 11 15 1011.3 1011.1 0.0
28/10:30am 20.4 16.6 9.9 51 5.7 SE 20 26 11 14 1011.8 1011.6 0.0
28/10:00am 17.7 13.9 9.8 60 4.2 SE 20 28 11 15 1011.9 1011.7 0.0
28/09:30am 15.8 11.6 9.7 67 3.2 SE 22 26 12 14 1012.0 1011.8 0.0
28/09:00am 15.1 11.9 9.9 71 2.7 SE 17 24 9 13 1012.0 1011.8 0.0
28/08:30am 14.1 10.4 9.5 74 2.4 SE 19 24 10 13 1012.2 1012.0 0.0
28/08:00am 13.0 8.3 9.3 78 1.9 SSE 24 32 13 17 1011.9 1011.7 0.0
28/07:30am 12.7 7.2 9.2 79 1.8 SSE 28 37 15 20 1011.6 1011.4 0.0
28/07:00am 11.9 7.1 8.9 82 1.5 SSE 24 32 13 17 1011.5 1011.3 0.0
28/06:30am 11.4 7.3 8.6 83 1.4 SSE 20 30 11 16 1011.5 1011.3 0.0
28/06:00am 11.5 7.4 8.5 82 1.5 SE 20 28 11 15 1011.3 1011.1 0.0
28/05:30am 11.6 6.3 8.5 81 1.5 SSE 26 35 14 19 1010.9 1010.7 0.0

Other formats

Comma delimited format used in spreadsheet applications
http://www.bom.gov.au/fwo/IDV60801/IDV60801.94920.axf

JavaScript Object Notation format (JSON) in row-major order
http://www.bom.gov.au/fwo/IDV60801/IDV60801.94920.json

Data quality

Most of these data are generated automatically and are frequently updated. Quality checks on data are not normally performed. It is possible for incorrect values to appear. Refer to information at About Latest Weather Observations and please check the disclaimer before using these data.